Latest Coastal Weather Observations for Newcastle Nobbys

IDN60701

Issued at 9:11 am EDT Thursday 23 March 2017 (issued every 10 minutes, with the page automatically refreshed every 10 minutes)

About coastal observations | Map of coastal stations | Coastal observations for NSW | Marine services | Other Formats
Station Details ID: 061055 Name: NEWCASTLE NOBBYS SIGNAL STATION AWS Lat: -32.92 Lon: 151.80 Height: 33.0 m
Data from the previous 72 hours. | See also: Recent months at Newcastle Nobbys
Date/Time
EDT
Temp
°C
Wind Pressure Rain since
9am
mm
Weather Cloud Vis
km
Sea
Height
m
Swell
Dir  Spd
kts
Gust
kts
hPa Trend Height
m
Period
s
Dir
23/09:00am 21.9 SSW 16 22 - - 10.6 - - - - - - -
23/08:30am 21.7 SSW 16 20 - - 10.6 - - - - - - -
23/08:00am 21.6 SSW 14 22 - - 10.6 - - - - - - -
23/07:30am 21.9 SSW 16 23 - - 10.6 - - - - - - -
23/07:00am 21.9 SSW 18 23 - - 10.6 - - - - - - -
23/06:30am 22.1 SSW 17 24 - - 10.6 - - - - - - -
23/06:00am 22.1 SSW 17 24 - - 10.6 Recent precip. - - - - - -
23/05:30am 22.2 SSW 14 20 - - 10.6 - - - - - - -
23/05:00am 22.1 SSW 15 21 - - 10.4 - - - - - - -
23/04:30am 21.8 SSW 11 17 - - 10.4 - - - - - - -
23/04:00am 22.6 SSW 16 21 - - 9.6 - - - - - - -
23/03:30am 22.1 SSW 17 22 - - 9.6 - - - - - - -
23/03:00am 22.0 SSW 14 20 - - 9.4 Rain - - - - - -
23/02:30am 22.3 SSW 15 22 - - 9.2 - - - - - - -
23/02:00am 22.1 SW 10 15 - - 9.2 - - - - - - -
23/01:30am 22.0 SW 9 17 - - 9.2 - - - - - - -
23/01:00am 22.2 SW 7 13 - - 9.2 - - - - - - -
23/12:30am 22.4 SW 7 12 - - 9.2 - - - - - - -
23/12:00am 22.6 SSW 5 9 - - 9.2 - - - - - - -
 
Date/Time
EDT
Temp
°C
Wind Pressure Rain since
9am
mm
Weather Cloud Vis
km
Sea
Height
m
Swell
Dir  Spd
kts
Gust
kts
hPa Trend Height
m
Period
s
Dir
22/11:30pm 21.9 SSW 4 7 - - 9.2 - - - - - - -
22/11:00pm 21.5 N 1 2 - - 9.2 - - - - - - -
22/10:30pm 21.1 NNE 2 5 - - 9.2 - - - - - - -
22/10:00pm 21.5 NW 3 5 - - 9.2 - - - - - - -
22/09:30pm 21.8 NNW 9 11 - - 9.2 - - - - - - -
22/09:00pm 21.5 NNW 9 13 - - 9.2 - - - - - - -
22/08:30pm 21.4 NNW 7 11 - - 9.2 - - - - - - -
22/08:00pm 22.1 W 3 4 - - 9.2 - - - - - - -
22/07:30pm 21.4 SSE 13 16 - - 9.2 - - - - - - -
22/07:27pm 21.4 S 12 16 - - 9.0 - - - - - - -
22/07:00pm 21.2 SSW 20 31 - - 8.4 - - - - - - -
22/06:49pm 22.9 NNW 11 27 - - 4.6 - - - - - - -
22/06:30pm 25.1 NNE 11 15 - - 0.0 - - - - - - -
22/06:00pm 26.2 NW 9 13 - - 0.0 - - - - - - -
22/05:30pm 26.5 NW 11 15 - - 0.0 - - - - - - -
22/05:00pm 27.1 NW 12 15 - - 0.0 - - - - - - -
22/04:30pm 27.8 WNW 15 21 - - 0.0 - - - - - - -
22/04:00pm 28.7 NW 12 15 - - 0.0 - - - - - - -
22/03:30pm 28.6 W 9 12 - - 0.0 - - - - - - -
22/03:00pm 29.7 WNW 14 19 - - 0.0 - - - - - - -
22/02:30pm 30.6 NW 16 20 - - 0.0 - - - - - - -
22/02:00pm 30.4 WNW 15 19 - - 0.0 - - - - - - -
22/01:30pm 28.9 NW 16 22 - - 0.0 - - - - - - -
22/01:00pm 27.8 NW 12 16 - - 0.0 - - - - - - -
22/12:30pm 26.9 NW 12 16 - - 0.0 - - - - - - -
22/12:00pm 26.4 NW 10 13 - - 0.0 - - - - - - -
22/11:30am 25.2 NNW 8 9 - - 0.0 - - - - - - -
22/11:00am 24.9 NNW 9 12 - - 0.0 - - - - - - -
22/10:30am 24.9 NNW 10 13 - - 0.0 - - - - - - -
22/10:00am 24.4 NNW 9 12 - - 0.0 - - - - - - -
22/09:30am 24.3 NNW 9 12 - - 0.0 - - - - - - -
22/09:00am 23.6 NW 5 8 - - 0.0 - - - - - - -
22/08:30am 23.1 NNW 11 13 - - 0.0 - - - - - - -
22/08:00am 23.1 NNW 11 14 - - 0.0 - - - - - - -
22/07:30am 23.1 N 10 13 - - 0.0 - - - - - - -
22/07:00am 22.9 N 11 13 - - 0.0 - - - - - - -
22/06:30am 23.1 N 6 7 - - 0.0 - - - - - - -
22/06:00am 22.8 NW 1 3 - - 0.0 - - - - - - -
22/05:30am 23.1 N 5 7 - - 0.0 - - - - - - -
22/05:00am 23.1 N 6 7 - - 0.0 - - - - - - -
22/04:30am 23.0 NNW 7 9 - - 0.0 - - - - - - -
22/04:00am 23.0 NNW 4 6 - - 0.0 - - - - - - -
22/03:30am 23.0 NW 6 7 - - 0.0 - - - - - - -
22/03:00am 23.0 NNW 6 9 - - 0.0 - - - - - - -
22/02:30am 23.5 NNW 8 11 - - 0.0 - - - - - - -
22/02:00am 23.5 NNW 4 5 - - 0.0 - - - - - - -
22/01:30am 23.5 N 6 7 - - 0.0 - - - - - - -
22/01:00am 23.7 N 7 8 - - 0.0 - - - - - - -
22/12:30am 23.8 N 3 4 - - 0.0 - - - - - - -
22/12:00am 24.0 NE 2 4 - - 0.0 - - - - - - -
 
Date/Time
EDT
Temp
°C
Wind Pressure Rain since
9am
mm
Weather Cloud Vis
km
Sea
Height
m
Swell
Dir  Spd
kts
Gust
kts
hPa Trend Height
m
Period
s
Dir
21/11:30pm 24.3 NNW 3 5 - - 0.0 - - - - - - -
21/11:00pm 24.4 NNE 5 7 - - 0.0 - - - - - - -
21/10:30pm 24.8 NW 3 5 - - 0.0 - - - - - - -
21/10:00pm 24.9 NE 4 7 - - 0.0 - - - - - - -
21/09:30pm 25.1 NNE 4 6 - - 0.0 - - - - - - -
21/09:00pm 25.3 NNE 7 8 - - 0.0 - - - - - - -
21/08:30pm 25.4 NNE 7 9 - - 0.0 - - - - - - -
21/08:00pm 25.4 NE 6 8 - - 0.0 - - - - - - -
21/07:30pm 25.6 NE 6 9 - - 0.0 - - - - - - -
21/07:00pm 25.5 NE 7 9 - - 0.0 - - - - - - -
21/06:30pm 25.5 NE 11 14 - - 0.0 - - - - - - -
21/06:00pm 25.4 ENE 11 15 - - 0.0 - - - - - - -
21/05:30pm 25.9 ENE 11 13 - - 0.0 - - - - - - -
21/05:00pm 26.3 ENE 8 11 - - 0.0 - - - - - - -
21/04:30pm 26.8 ENE 10 12 - - 0.0 - - - - - - -
21/04:00pm 26.9 ENE 8 11 - - 0.0 - - - - - - -
21/03:30pm 26.7 ENE 10 12 - - 0.0 - - - - - - -
21/03:00pm 26.1 E 9 11 - - 0.0 - - - - - - -
21/02:30pm 26.9 E 8 9 - - 0.0 - - - - - - -
21/02:00pm 27.0 E 5 7 - - 0.0 - - - - - - -
21/01:30pm 28.9 ENE 6 9 - - 0.0 - - - - - - -
21/01:00pm 29.4 NE 6 9 - - 0.0 - - - - - - -
21/12:30pm 28.4 NNE 8 10 - - 0.0 - - - - - - -
21/12:00pm 28.1 NNE 6 8 - - 0.0 - - - - - - -
21/11:30am 27.6 N 6 9 - - 0.0 - - - - - - -
21/11:00am 27.2 N 8 10 - - 0.0 - - - - - - -
21/10:30am 25.7 N 9 12 - - 0.0 - - - - - - -
21/10:00am 24.4 NNE 4 5 - - 0.0 - - - - - - -
21/09:30am 23.7 NNE 4 5 - - 0.0 - - - - - - -
21/09:00am 23.4 NE 3 5 - - 0.0 - - - - - - -
21/08:30am 23.0 NE 2 3 - - 0.0 - - - - - - -
21/08:00am 22.7 N 4 5 - - 0.0 - - - - - - -
21/07:30am 22.6 NNE 5 7 - - 0.0 - - - - - - -
21/07:00am 22.6 NNE 5 7 - - 0.0 - - - - - - -
21/06:30am 22.8 NNE 9 11 - - 0.0 - - - - - - -
21/06:00am 22.8 NNE 9 11 - - 0.0 - - - - - - -
21/05:30am 22.8 NNE 9 12 - - 0.0 - - - - - - -
21/05:00am 22.9 NE 7 10 - - 0.0 - - - - - - -
21/04:30am 23.1 NE 7 11 - - 0.0 - - - - - - -
21/04:00am 23.2 NNE 7 9 - - 0.0 - - - - - - -
21/03:30am 23.2 NE 5 7 - - 0.0 - - - - - - -
21/03:00am 23.2 NNE 6 8 - - 0.0 - - - - - - -
21/02:30am 23.4 NE 6 10 - - 0.0 - - - - - - -
21/02:00am 23.4 NE 9 11 - - 0.0 - - - - - - -
21/01:30am 23.5 NE 7 11 - - 0.0 - - - - - - -
21/01:00am 23.5 NE 9 13 - - 0.0 - - - - - - -
21/12:30am 23.5 NE 7 11 - - 0.0 - - - - - - -
21/12:00am 23.5 NE 8 11 - - 0.0 - - - - - - -
 
Date/Time
EDT
Temp
°C
Wind Pressure Rain since
9am
mm
Weather Cloud Vis
km
Sea
Height
m
Swell
Dir  Spd
kts
Gust
kts
hPa Trend Height
m
Period
s
Dir
20/11:30pm 23.6 NE 8 11 - - 0.0 - - - - - - -
20/11:00pm 23.5 NE 8 11 - - 0.0 - - - - - - -
20/10:30pm 23.6 NE 5 8 - - 0.0 - - - - - - -
20/10:00pm 23.6 NE 5 8 - - 0.0 - - - - - - -
20/09:30pm 23.7 NE 7 10 - - 0.0 - - - - - - -
20/09:00pm 23.8 NE 7 10 - - 0.0 - - - - - - -
20/08:30pm 23.9 NE 7 10 - - 0.0 - - - - - - -
20/08:00pm 23.9 NE 10 12 - - 0.0 - - - - - - -
20/07:30pm 24.1 NE 9 11 - - 0.0 - - - - - - -
20/07:00pm 24.2 NE 8 11 - - 0.0 - - - - - - -
20/06:30pm 24.2 NE 7 11 - - 0.0 - - - - - - -
20/06:00pm 24.5 NE 8 13 - - 0.0 - - - - - - -
20/05:30pm 24.6 NE 8 13 - - 0.0 - - - - - - -
20/05:00pm 24.8 NE 7 11 - - 0.0 - - - - - - -
20/04:30pm 24.7 NE 7 11 - - 0.0 - - - - - - -
20/04:00pm 24.8 NE 8 14 - - 0.0 - - - - - - -
20/03:30pm 24.6 NE 7 9 - - 0.0 - - - - - - -
20/03:00pm 24.8 NE 8 11 - - 0.0 - - - - - - -
20/02:30pm 25.1 NE 10 15 - - 0.0 - - - - - - -
20/02:00pm 25.1 NE 10 13 - - 0.0 - - - - - - -
20/01:30pm 25.1 NE 10 14 - - 0.0 - - - - - - -
20/01:00pm 25.6 NE 10 17 - - 0.0 - - - - - - -
20/12:30pm 25.4 NE 11 15 - - 0.0 - - - - - - -
20/12:00pm 25.4 NE 12 16 - - 0.0 - - - - - - -
20/11:30am 25.9 NE 11 17 - - 0.0 - - - - - - -
20/11:00am 25.9 NE 13 19 - - 0.0 - - - - - - -
20/10:30am 25.0 NE 9 14 - - 0.0 - - - - - - -
20/10:00am 25.3 NNE 9 13 - - 0.0 - - - - - - -
20/09:30am 24.8 NNE 12 14 - - 0.0 - - - - - - -

Other Formats:

Comma delimited format used in spreadsheet applications
http://www.bom.gov.au/fwo/IDN60701/IDN60701.94774.axf

JavaScript Object Notation format (JSON) in row-major order
http://www.bom.gov.au/fwo/IDN60701/IDN60701.94774.json